Time;durP1;ratioP1;P1;durP2;ratioP2;P2;SDS_P1;SDS_P2;PMS_P1;PMS_P2;Temp;Humidity;BMP_temperature;BMP_pressure;BME280_temperature;BME280_humidity;BME280_pressure;Samples;Min_cycle;Max_cycle;Signal;HPM_P1;HPM_P2
2023/08/23 00:01:05;;;;;;;12.55;8.20;;;24.00;78.40;;;;;;4865564;29;20068;-90
2023/08/23 00:03:51;;;;;;;14.18;8.48;;;23.90;78.60;;;;;;4867735;29;20406;-90
2023/08/23 00:06:18;;;;;;;14.13;8.75;;;23.90;78.70;;;;;;4864787;29;20084;-90
2023/08/23 00:08:46;;;;;;;14.25;8.43;;;23.90;78.80;;;;;;4865587;29;20080;-91
2023/08/23 00:11:13;;;;;;;12.70;8.00;;;23.80;78.80;;;;;;4864303;29;20472;-90
2023/08/23 00:13:40;;;;;;;14.77;7.88;;;23.90;78.80;;;;;;4864867;29;20483;-90
2023/08/23 00:16:07;;;;;;;13.05;7.95;;;23.90;78.50;;;;;;4864705;29;20044;-90
2023/08/23 00:18:34;;;;;;;13.32;8.15;;;23.80;78.40;;;;;;4864730;29;20045;-90
2023/08/23 00:21:01;;;;;;;15.52;8.85;;;23.90;78.40;;;;;;4865066;29;20049;-91
2023/08/23 00:23:28;;;;;;;11.77;7.77;;;23.80;78.20;;;;;;4865185;29;20101;-90
2023/08/23 00:25:55;;;;;;;14.68;8.10;;;23.80;78.20;;;;;;4865408;29;20495;-90
2023/08/23 00:28:22;;;;;;;12.75;7.78;;;23.80;77.90;;;;;;4865255;29;20045;-90
2023/08/23 00:30:51;;;;;;;13.70;7.80;;;23.90;77.80;;;;;;4865108;29;20499;-90
2023/08/23 00:33:19;;;;;;;13.82;7.85;;;24.00;77.70;;;;;;4864910;29;20126;-90
2023/08/23 00:35:46;;;;;;;14.03;8.13;;;23.90;77.80;;;;;;4864579;29;20049;-91
2023/08/23 00:38:15;;;;;;;13.13;8.77;;;23.90;77.90;;;;;;4865564;29;20529;-90
2023/08/23 00:40:43;;;;;;;12.38;7.85;;;23.90;77.90;;;;;;4864764;29;20045;-90
2023/08/23 00:43:10;;;;;;;14.63;8.30;;;24.00;77.70;;;;;;4864624;29;20410;-90
2023/08/23 00:45:39;;;;;;;13.57;8.45;;;24.00;77.60;;;;;;4864475;29;20041;-90
2023/08/23 00:48:08;;;;;;;12.10;7.67;;;24.00;77.70;;;;;;4864511;29;20052;-91
2023/08/23 00:50:36;;;;;;;12.13;8.10;;;24.00;77.80;;;;;;4864476;29;20110;-91
2023/08/23 00:53:06;;;;;;;16.45;7.63;;;24.00;77.80;;;;;;4864376;29;20048;-91
2023/08/23 00:55:35;;;;;;;12.57;7.57;;;24.00;77.90;;;;;;4864450;29;20049;-91
2023/08/23 00:58:04;;;;;;;13.65;8.15;;;24.00;77.90;;;;;;4864033;29;20053;-91
2023/08/23 01:00:32;;;;;;;11.17;8.00;;;24.00;77.90;;;;;;4864166;29;20534;-90
2023/08/23 01:02:59;;;;;;;12.60;7.97;;;24.00;77.80;;;;;;4864291;29;20049;-90
2023/08/23 01:05:42;;;;;;;13.35;8.05;;;23.90;77.90;;;;;;4876298;29;20045;-90
2023/08/23 01:08:22;;;;;;;11.63;7.85;;;23.90;78.10;;;;;;4882496;29;20056;-90
2023/08/23 01:11:18;;;;;;;11.60;8.07;;;23.90;78.00;;;;;;4882640;29;20053;-90
2023/08/23 01:13:50;;;;;;;11.90;8.17;;;23.90;78.00;;;;;;4882907;29;20526;-90
2023/08/23 01:16:19;;;;;;;12.93;8.80;;;23.80;78.20;;;;;;4867261;29;20049;-91
2023/08/23 01:18:47;;;;;;;13.07;8.43;;;23.80;78.20;;;;;;4882644;29;20049;-91
2023/08/23 01:21:20;;;;;;;12.13;8.27;;;23.80;78.20;;;;;;4867223;29;20131;-91
2023/08/23 01:23:49;;;;;;;11.88;8.18;;;23.80;78.20;;;;;;4887388;29;20566;-90
2023/08/23 01:26:16;;;;;;;15.90;8.70;;;23.80;78.20;;;;;;4888685;29;20055;-90
2023/08/23 01:28:43;;;;;;;13.30;8.95;;;23.80;78.40;;;;;;4888786;29;20431;-90
2023/08/23 01:31:11;;;;;;;13.30;8.68;;;23.70;78.60;;;;;;4888706;29;20512;-91
2023/08/23 01:33:49;;;;;;;13.32;8.52;;;23.70;78.90;;;;;;4888879;29;20108;-90
2023/08/23 01:36:30;;;;;;;14.38;8.82;;;23.70;78.80;;;;;;4873255;29;20044;-91
2023/08/23 01:38:58;;;;;;;13.37;9.10;;;23.70;78.80;;;;;;4873569;29;20521;-90
2023/08/23 01:41:25;;;;;;;12.73;8.98;;;23.70;78.90;;;;;;4873070;29;20056;-90
2023/08/23 01:43:52;;;;;;;12.60;8.68;;;23.70;78.80;;;;;;4889209;29;20049;-91
2023/08/23 01:46:23;;;;;;;14.15;9.45;;;23.70;78.70;;;;;;4889084;29;20052;-91
2023/08/23 01:48:50;;;;;;;15.77;9.25;;;23.80;78.70;;;;;;4888625;29;20048;-91
2023/08/23 01:51:17;;;;;;;15.83;9.40;;;23.70;78.60;;;;;;4888819;29;20099;-91
2023/08/23 01:53:44;;;;;;;14.43;9.23;;;23.80;78.60;;;;;;4888510;29;20143;-91
2023/08/23 01:56:11;;;;;;;15.52;9.15;;;23.80;78.60;;;;;;4873178;29;20052;-91
2023/08/23 01:58:38;;;;;;;15.70;10.13;;;23.80;78.80;;;;;;4888669;29;20529;-91
2023/08/23 02:01:05;;;;;;;16.33;10.90;;;23.70;79.10;;;;;;4888540;29;20056;-91
2023/08/23 02:03:32;;;;;;;15.90;10.53;;;23.80;79.20;;;;;;4888483;29;20059;-91
2023/08/23 02:05:59;;;;;;;15.38;9.50;;;23.80;79.20;;;;;;4888524;29;20052;-91
2023/08/23 02:08:26;;;;;;;15.93;11.23;;;23.80;79.30;;;;;;4888494;29;20532;-91
2023/08/23 02:10:53;;;;;;;14.90;9.88;;;23.80;79.30;;;;;;4888589;29;20529;-90
2023/08/23 02:13:20;;;;;;;20.27;12.07;;;23.70;79.50;;;;;;4888281;29;20075;-90
2023/08/23 02:15:48;;;;;;;17.47;12.53;;;23.80;79.60;;;;;;4888802;29;20052;-91
2023/08/23 02:18:15;;;;;;;22.83;14.45;;;23.70;79.70;;;;;;4888721;29;20053;-90
2023/08/23 02:20:43;;;;;;;22.90;14.60;;;23.70;79.80;;;;;;4888286;29;20040;-91
2023/08/23 02:23:10;;;;;;;18.38;12.85;;;23.60;79.90;;;;;;4888831;29;20062;-90
2023/08/23 02:25:37;;;;;;;17.85;12.90;;;23.60;80.00;;;;;;4888694;29;20518;-90
2023/08/23 02:28:05;;;;;;;21.27;13.83;;;23.60;80.10;;;;;;4873132;29;20051;-91
2023/08/23 02:30:32;;;;;;;23.50;13.90;;;23.60;80.00;;;;;;4888533;29;20063;-90
2023/08/23 02:33:01;;;;;;;22.08;13.90;;;23.50;80.20;;;;;;4888855;29;20194;-90
2023/08/23 02:35:28;;;;;;;25.08;15.13;;;23.40;81.40;;;;;;4886094;29;20120;-90
2023/08/23 02:37:57;;;;;;;25.33;14.52;;;23.20;81.60;;;;;;4885974;29;20048;-90
2023/08/23 02:40:24;;;;;;;25.60;13.27;;;23.20;81.60;;;;;;4886174;29;20055;-90
2023/08/23 02:42:55;;;;;;;24.90;14.50;;;23.20;81.60;;;;;;4886303;29;20048;-90
2023/08/23 02:45:23;;;;;;;23.42;13.57;;;23.10;82.20;;;;;;4886054;29;20048;-90
2023/08/23 02:47:51;;;;;;;18.88;11.88;;;23.10;82.40;;;;;;4885462;29;20052;-90
2023/08/23 02:50:18;;;;;;;26.13;14.38;;;23.00;81.90;;;;;;4885326;29;20049;-90
2023/08/23 02:52:45;;;;;;;23.73;14.53;;;23.00;82.30;;;;;;4885368;29;20056;-90
2023/08/23 02:55:14;;;;;;;20.08;12.50;;;22.80;82.70;;;;;;4885852;29;20055;-90
2023/08/23 02:57:41;;;;;;;18.15;11.82;;;22.80;82.60;;;;;;4885157;29;20048;-90
2023/08/23 03:00:10;;;;;;;19.00;11.07;;;22.80;82.40;;;;;;4885810;29;20049;-90
2023/08/23 03:02:37;;;;;;;20.00;13.20;;;22.80;82.10;;;;;;4870472;29;20040;-90
2023/08/23 03:05:05;;;;;;;18.97;11.97;;;22.90;81.80;;;;;;4870288;29;20049;-90
2023/08/23 03:07:32;;;;;;;19.48;11.60;;;22.90;81.90;;;;;;4885269;29;20076;-90
2023/08/23 03:09:59;;;;;;;20.33;12.05;;;22.90;81.60;;;;;;4885635;29;20050;-90
2023/08/23 03:12:26;;;;;;;18.55;11.90;;;22.90;81.60;;;;;;4886002;29;20514;-90
2023/08/23 03:14:53;;;;;;;17.50;10.88;;;22.80;81.50;;;;;;4885763;29;20059;-90
2023/08/23 03:17:20;;;;;;;16.30;10.30;;;22.80;81.50;;;;;;4885229;29;20448;-90
2023/08/23 03:19:51;;;;;;;20.00;11.55;;;22.80;80.90;;;;;;4885697;29;20048;-90
2023/08/23 03:22:18;;;;;;;18.65;11.02;;;22.90;80.80;;;;;;4885605;29;20135;-90
2023/08/23 03:24:45;;;;;;;18.17;10.80;;;22.90;80.70;;;;;;4884962;29;20059;-90
2023/08/23 03:27:12;;;;;;;16.38;11.48;;;22.90;80.50;;;;;;4885799;29;20566;-90
2023/08/23 03:29:43;;;;;;;18.53;12.00;;;22.90;80.70;;;;;;4885455;29;20139;-90
2023/08/23 03:32:11;;;;;;;17.00;11.48;;;22.90;80.70;;;;;;4885274;29;20052;-90
2023/08/23 03:34:37;;;;;;;16.08;10.52;;;22.90;80.70;;;;;;4885242;29;20453;-90
2023/08/23 03:37:05;;;;;;;17.17;11.18;;;22.90;80.60;;;;;;4885196;29;20055;-90
2023/08/23 03:39:32;;;;;;;17.15;10.98;;;22.80;80.60;;;;;;4885191;29;20120;-90
2023/08/23 03:41:59;;;;;;;15.90;10.50;;;22.80;80.60;;;;;;4884765;29;20076;-90
2023/08/23 03:44:26;;;;;;;16.73;10.75;;;22.80;80.30;;;;;;4884621;29;20048;-90
2023/08/23 03:46:56;;;;;;;15.70;10.15;;;22.80;80.10;;;;;;4884794;29;20091;-90
2023/08/23 03:49:23;;;;;;;13.63;8.95;;;22.80;80.00;;;;;;4884941;29;20562;-90
2023/08/23 03:51:54;;;;;;;16.55;10.52;;;22.70;80.30;;;;;;4869292;29;20063;-90
2023/08/23 03:54:21;;;;;;;16.53;10.07;;;22.70;80.40;;;;;;4885270;29;20099;-90
2023/08/23 03:56:48;;;;;;;16.38;9.82;;;22.70;80.50;;;;;;4884718;29;20052;-89
2023/08/23 03:59:15;;;;;;;15.45;9.70;;;22.70;80.40;;;;;;4884500;29;20044;-90
2023/08/23 04:01:43;;;;;;;23.35;10.15;;;22.60;80.40;;;;;;4884458;29;20042;-90
2023/08/23 04:04:10;;;;;;;14.75;10.23;;;22.70;80.50;;;;;;4883815;29;20037;-90
2023/08/23 04:06:38;;;;;;;16.53;9.37;;;22.70;80.60;;;;;;4883856;29;20155;-90
2023/08/23 04:09:05;;;;;;;14.68;8.82;;;22.70;80.30;;;;;;4884216;29;20041;-90
2023/08/23 04:11:32;;;;;;;15.15;9.57;;;22.70;80.20;;;;;;4883857;29;20064;-90
2023/08/23 04:13:59;;;;;;;17.73;11.15;;;22.80;80.40;;;;;;4868415;29;20044;-90
2023/08/23 04:16:26;;;;;;;15.73;10.15;;;22.80;80.70;;;;;;4883549;29;20076;-90
2023/08/23 04:18:54;;;;;;;16.17;10.10;;;22.80;80.80;;;;;;4883650;29;20049;-89
2023/08/23 04:21:21;;;;;;;15.55;10.60;;;22.80;81.10;;;;;;4883813;29;20044;-90
2023/08/23 04:23:49;;;;;;;16.92;11.27;;;22.80;80.90;;;;;;4883761;29;20048;-90
2023/08/23 04:26:17;;;;;;;16.00;10.10;;;22.80;80.70;;;;;;4883302;29;20418;-90
2023/08/23 04:28:46;;;;;;;16.73;11.32;;;22.90;80.50;;;;;;4883707;29;20139;-90
2023/08/23 04:31:14;;;;;;;20.93;12.87;;;22.90;80.50;;;;;;4883964;29;20144;-90
2023/08/23 04:33:51;;;;;;;19.77;13.45;;;22.90;80.70;;;;;;4883668;29;20518;-90
2023/08/23 04:36:18;;;;;;;19.13;13.70;;;22.90;81.30;;;;;;4883953;29;20569;-90
2023/08/23 04:38:45;;;;;;;17.20;12.32;;;22.80;81.40;;;;;;4883466;29;20045;-90
2023/08/23 04:41:12;;;;;;;20.10;14.77;;;22.90;81.50;;;;;;4883878;29;20044;-90
2023/08/23 04:43:39;;;;;;;18.80;13.43;;;22.90;81.20;;;;;;4883330;29;20040;-90
2023/08/23 04:46:07;;;;;;;22.05;15.23;;;22.90;81.60;;;;;;4884571;29;20041;-90
2023/08/23 04:48:35;;;;;;;21.60;16.20;;;22.90;81.60;;;;;;4883615;29;20051;-90
2023/08/23 04:51:04;;;;;;;23.42;16.92;;;22.90;81.70;;;;;;4883683;29;20139;-90
2023/08/23 04:53:31;;;;;;;21.17;14.05;;;23.00;81.60;;;;;;4883684;29;20108;-90
2023/08/23 04:55:58;;;;;;;21.93;14.77;;;23.00;81.70;;;;;;4883196;29;20147;-90
2023/08/23 04:58:31;;;;;;;23.27;14.93;;;23.00;81.70;;;;;;4883526;29;20491;-90
2023/08/23 05:01:03;;;;;;;21.13;14.73;;;23.00;81.80;;;;;;4883049;29;20067;-90
2023/08/23 05:03:33;;;;;;;24.00;16.42;;;23.00;81.80;;;;;;4883509;29;20147;-90
2023/08/23 05:06:00;;;;;;;21.80;15.68;;;23.00;81.90;;;;;;4867667;29;20526;-90
2023/08/23 05:08:30;;;;;;;25.13;17.93;;;23.00;81.50;;;;;;4883346;29;20057;-90
2023/08/23 05:11:02;;;;;;;28.65;19.02;;;22.90;81.50;;;;;;4883773;29;20048;-90
2023/08/23 05:13:29;;;;;;;25.00;17.85;;;22.70;82.00;;;;;;4883276;29;20143;-90
2023/08/23 05:15:57;;;;;;;26.40;19.02;;;22.70;82.20;;;;;;4883341;29;20052;-90
2023/08/23 05:18:24;;;;;;;30.58;21.25;;;22.70;82.50;;;;;;4883318;29;20051;-90
2023/08/23 05:20:56;;;;;;;37.43;23.23;;;22.70;82.30;;;;;;4883276;29;20041;-90
2023/08/23 05:23:23;;;;;;;39.28;24.77;;;22.70;82.40;;;;;;4883698;29;20045;-90
2023/08/23 05:25:52;;;;;;;39.85;27.00;;;22.60;82.30;;;;;;4883783;29;20431;-90
2023/08/23 05:28:20;;;;;;;47.45;26.75;;;22.60;82.50;;;;;;4883394;29;20048;-90
2023/08/23 05:30:49;;;;;;;48.72;29.08;;;22.60;82.50;;;;;;4867664;29;20048;-90
2023/08/23 05:33:20;;;;;;;51.77;29.47;;;22.60;82.60;;;;;;4883151;29;20064;-90
2023/08/23 05:35:47;;;;;;;46.10;30.42;;;22.50;82.40;;;;;;4883087;29;20059;-90
2023/08/23 05:38:15;;;;;;;47.60;30.23;;;22.50;82.50;;;;;;4882923;29;20060;-90
2023/08/23 05:40:42;;;;;;;53.20;31.65;;;22.50;82.60;;;;;;4882893;29;20044;-90
2023/08/23 05:43:09;;;;;;;55.47;33.92;;;22.50;82.60;;;;;;4882592;29;20051;-90
2023/08/23 05:45:36;;;;;;;49.73;29.87;;;22.30;83.20;;;;;;4867563;29;20415;-90
2023/08/23 05:48:03;;;;;;;50.53;30.05;;;22.20;83.10;;;;;;4882825;29;20055;-90
2023/08/23 05:50:31;;;;;;;43.47;28.88;;;22.20;82.70;;;;;;4883028;29;20058;-90
2023/08/23 05:52:58;;;;;;;53.55;32.58;;;22.10;83.10;;;;;;4882747;29;20507;-90
2023/08/23 05:55:25;;;;;;;50.10;31.23;;;22.00;83.10;;;;;;4882426;29;20044;-90
2023/08/23 05:57:52;;;;;;;44.47;28.57;;;22.10;83.00;;;;;;4882586;29;20435;-90
2023/08/23 06:00:19;;;;;;;48.88;30.55;;;22.10;83.00;;;;;;4882257;29;20048;-90
2023/08/23 06:02:46;;;;;;;49.20;32.13;;;22.00;82.90;;;;;;4882312;29;20100;-90
2023/08/23 06:05:14;;;;;;;52.45;32.15;;;22.00;83.00;;;;;;4882370;29;20079;-90
2023/08/23 06:07:41;;;;;;;58.50;34.25;;;22.00;83.30;;;;;;4866959;29;20063;-89
2023/08/23 06:10:10;;;;;;;57.20;31.43;;;21.90;83.00;;;;;;4868353;29;20600;-90
2023/08/23 06:12:37;;;;;;;52.08;31.70;;;21.80;83.10;;;;;;4885857;29;20557;-89
2023/08/23 06:15:05;;;;;;;54.30;32.80;;;21.90;83.40;;;;;;4885629;29;20053;-89
2023/08/23 06:17:32;;;;;;;56.80;33.00;;;21.80;83.50;;;;;;4885860;29;20410;-89
2023/08/23 06:19:59;;;;;;;57.38;32.22;;;21.90;83.20;;;;;;4886015;29;20096;-89
2023/08/23 06:22:26;;;;;;;61.33;33.87;;;22.00;83.20;;;;;;4885589;29;20045;-90
2023/08/23 06:24:53;;;;;;;60.92;33.13;;;22.00;83.10;;;;;;4885453;29;20052;-90
2023/08/23 06:27:20;;;;;;;62.88;33.40;;;22.00;82.70;;;;;;4885612;29;20045;-90
2023/08/23 06:29:47;;;;;;;59.05;31.02;;;22.00;82.70;;;;;;4885826;29;20056;-90
2023/08/23 06:32:14;;;;;;;56.70;30.85;;;22.10;82.90;;;;;;4885466;29;20052;-90
2023/08/23 06:34:41;;;;;;;49.93;27.53;;;22.00;82.50;;;;;;4885690;29;20044;-90
2023/08/23 06:37:08;;;;;;;66.10;31.67;;;22.10;82.20;;;;;;4870576;29;20143;-90
2023/08/23 06:39:35;;;;;;;52.00;29.05;;;22.00;82.40;;;;;;4885645;29;20088;-90
2023/08/23 06:42:02;;;;;;;56.08;29.15;;;21.80;82.50;;;;;;4886027;29;20045;-90
2023/08/23 06:44:31;;;;;;;50.55;27.08;;;21.80;82.70;;;;;;4885390;29;20056;-90
2023/08/23 06:46:58;;;;;;;58.83;29.97;;;21.80;82.80;;;;;;4885721;29;20048;-90
2023/08/23 06:49:25;;;;;;;52.20;27.88;;;21.70;83.00;;;;;;4885796;29;20040;-90
2023/08/23 06:51:52;;;;;;;53.55;28.58;;;21.60;83.30;;;;;;4885656;29;20073;-90
2023/08/23 06:54:19;;;;;;;50.58;27.67;;;21.70;83.10;;;;;;4886033;29;20068;-90
2023/08/23 06:56:46;;;;;;;47.47;26.33;;;21.70;83.30;;;;;;4885557;29;20051;-90
2023/08/23 06:59:13;;;;;;;52.27;26.93;;;21.80;83.10;;;;;;4869979;29;20052;-90
2023/08/23 07:01:40;;;;;;;58.20;28.38;;;21.80;83.20;;;;;;4885497;29;20079;-90
2023/08/23 07:04:07;;;;;;;56.05;28.42;;;22.00;83.10;;;;;;4886228;29;20066;-90
2023/08/23 07:06:35;;;;;;;55.95;27.88;;;21.90;82.80;;;;;;4885629;29;20415;-90
2023/08/23 07:09:02;;;;;;;58.75;29.35;;;21.90;82.60;;;;;;4885198;29;20507;-90
2023/08/23 07:11:30;;;;;;;57.83;29.03;;;22.00;82.90;;;;;;4885159;29;20151;-90
2023/08/23 07:13:57;;;;;;;51.63;27.65;;;22.00;82.40;;;;;;4885378;29;20070;-90
2023/08/23 07:16:24;;;;;;;57.22;29.10;;;22.00;82.30;;;;;;4885482;29;20049;-90
2023/08/23 07:18:51;;;;;;;57.15;30.00;;;22.10;82.30;;;;;;4884883;29;20416;-90
2023/08/23 07:21:18;;;;;;;58.38;29.25;;;22.00;82.20;;;;;;4884612;29;20049;-90
2023/08/23 07:23:45;;;;;;;57.27;30.07;;;22.00;82.40;;;;;;4869663;29;20503;-89
2023/08/23 07:26:13;;;;;;;62.05;30.73;;;22.00;82.60;;;;;;4884963;29;20080;-90
2023/08/23 07:28:40;;;;;;;58.47;30.48;;;22.10;82.40;;;;;;4884762;29;20057;-90
2023/08/23 07:31:07;;;;;;;62.08;31.27;;;22.10;82.10;;;;;;4884801;29;20147;-90
2023/08/23 07:33:34;;;;;;;57.10;30.15;;;22.10;82.30;;;;;;4885152;29;20080;-90
2023/08/23 07:36:01;;;;;;;59.53;31.00;;;22.10;82.30;;;;;;4884696;29;20067;-90
2023/08/23 07:38:29;;;;;;;60.85;30.98;;;22.20;81.90;;;;;;4884965;29;20048;-90
2023/08/23 07:40:58;;;;;;;56.40;29.95;;;22.10;81.90;;;;;;4884510;29;20080;-90
2023/08/23 07:43:26;;;;;;;57.33;29.95;;;22.10;81.80;;;;;;4869270;29;20055;-89
2023/08/23 07:45:55;;;;;;;56.33;28.48;;;22.00;82.30;;;;;;4884409;29;20084;-90
2023/08/23 07:48:23;;;;;;;48.70;26.57;;;21.90;82.40;;;;;;4884537;29;20091;-89
2023/08/23 07:50:52;;;;;;;52.22;27.33;;;21.80;82.40;;;;;;4884724;29;20060;-90
2023/08/23 07:53:19;;;;;;;45.38;24.73;;;21.60;83.00;;;;;;4884410;29;20407;-89
2023/08/23 07:55:46;;;;;;;46.67;25.35;;;21.60;83.20;;;;;;4884552;29;20410;-90
2023/08/23 07:58:14;;;;;;;45.30;24.23;;;21.60;83.10;;;;;;4883617;29;20060;-89
2023/08/23 08:00:41;;;;;;;44.50;22.73;;;21.50;83.70;;;;;;4884000;29;20064;-90
2023/08/23 08:03:12;;;;;;;43.70;23.52;;;21.60;83.20;;;;;;4884026;29;20048;-90
2023/08/23 08:05:39;;;;;;;45.00;23.00;;;21.60;83.10;;;;;;4884198;29;20049;-90
2023/08/23 08:08:07;;;;;;;41.53;22.83;;;21.60;82.80;;;;;;4884406;29;20607;-89
2023/08/23 08:10:36;;;;;;;39.25;22.38;;;21.70;82.50;;;;;;4884582;29;20065;-90
2023/08/23 08:13:04;;;;;;;41.83;23.23;;;21.70;82.50;;;;;;4884182;29;20052;-90
2023/08/23 08:15:31;;;;;;;42.55;24.05;;;21.70;82.50;;;;;;4883399;29;20090;-90
2023/08/23 08:17:58;;;;;;;44.70;25.40;;;21.70;82.50;;;;;;4868408;29;20187;-90
2023/08/23 08:20:26;;;;;;;47.33;25.92;;;21.60;82.20;;;;;;4883358;29;20116;-88
2023/08/23 08:22:53;;;;;;;45.38;25.00;;;21.80;82.30;;;;;;4883316;29;20100;-90
2023/08/23 08:25:20;;;;;;;45.83;25.17;;;21.70;82.00;;;;;;4883615;29;20053;-90
2023/08/23 08:27:50;;;;;;;42.08;23.58;;;21.70;82.30;;;;;;4883450;29;20101;-90
2023/08/23 08:30:18;;;;;;;40.20;23.75;;;21.70;82.50;;;;;;4883445;29;20084;-90
2023/08/23 08:32:45;;;;;;;42.40;24.20;;;21.80;82.50;;;;;;4883220;29;20048;-90
2023/08/23 08:35:12;;;;;;;43.00;25.60;;;21.80;82.20;;;;;;4883574;29;20047;-90
2023/08/23 08:37:40;;;;;;;40.40;23.70;;;21.90;82.10;;;;;;4868436;29;20044;-90
2023/08/23 08:40:08;;;;;;;38.90;23.13;;;22.00;82.40;;;;;;4883574;29;20063;-91
2023/08/23 08:42:36;;;;;;;39.80;22.35;;;22.00;81.90;;;;;;4867756;29;20056;-90
2023/08/23 08:45:05;;;;;;;35.05;22.40;;;22.00;81.30;;;;;;4883776;29;20049;-90
2023/08/23 08:47:32;;;;;;;35.88;22.50;;;22.10;81.50;;;;;;4883474;29;20422;-90
2023/08/23 08:49:59;;;;;;;39.17;23.13;;;22.00;81.30;;;;;;4883319;29;20075;-90
2023/08/23 08:52:28;;;;;;;37.70;21.50;;;22.00;82.00;;;;;;4883316;29;20410;-90
2023/08/23 08:54:57;;;;;;;35.47;20.92;;;22.00;82.10;;;;;;4883298;29;20087;-90
2023/08/23 08:57:26;;;;;;;32.00;19.55;;;22.00;81.60;;;;;;4883209;29;20055;-90
2023/08/23 08:59:56;;;;;;;31.23;19.38;;;22.00;81.30;;;;;;4882837;29;20056;-90
2023/08/23 09:02:25;;;;;;;33.03;21.03;;;22.00;81.30;;;;;;4883044;29;20406;-90
2023/08/23 09:04:53;;;;;;;31.58;20.13;;;22.00;81.30;;;;;;4867525;29;20227;-90
2023/08/23 09:07:20;;;;;;;29.35;19.23;;;22.10;81.30;;;;;;4882624;29;20414;-90
2023/08/23 09:09:49;;;;;;;27.55;18.35;;;22.10;81.50;;;;;;4882699;29;20055;-90
2023/08/23 09:12:16;;;;;;;34.83;21.42;;;22.10;81.40;;;;;;4882877;29;20418;-90
2023/08/23 09:14:49;;;;;;;37.70;21.10;;;22.00;81.70;;;;;;4882667;29;20052;-90
2023/08/23 09:17:22;;;;;;;33.78;21.42;;;22.00;81.80;;;;;;4882636;29;20048;-90
2023/08/23 09:19:51;;;;;;;34.90;20.38;;;22.10;82.30;;;;;;4882757;29;20059;-90
2023/08/23 09:22:21;;;;;;;33.90;20.23;;;22.10;81.80;;;;;;4883262;29;20112;-90
2023/08/23 09:24:49;;;;;;;36.17;20.75;;;22.20;82.00;;;;;;4882903;29;20064;-90
2023/08/23 09:27:16;;;;;;;34.10;19.97;;;22.10;81.60;;;;;;4867868;29;20051;-90
2023/08/23 09:30:04;;;;;;;29.67;18.00;;;22.10;82.00;;;;;;4870186;29;20056;-90
2023/08/23 09:32:31;;;;;;;31.67;19.67;;;22.30;81.40;;;;;;4868252;29;20055;-90
2023/08/23 09:35:13;;;;;;;30.67;19.58;;;22.20;81.10;;;;;;4883370;29;20052;-90
2023/08/23 09:37:47;;;;;;;30.27;18.90;;;22.40;81.70;;;;;;4883120;29;20079;-90
2023/08/23 09:40:28;;;;;;;31.43;19.13;;;22.40;81.00;;;;;;4883302;29;20096;-90
2023/08/23 09:42:56;;;;;;;34.35;19.92;;;22.30;81.30;;;;;;4883646;29;20093;-90
2023/08/23 09:45:26;;;;;;;30.90;19.65;;;22.30;81.10;;;;;;4887108;29;20139;-91
2023/08/23 09:47:59;;;;;;;31.17;20.25;;;22.30;80.60;;;;;;4871686;29;20052;-90
2023/08/23 09:50:27;;;;;;;36.47;21.42;;;22.40;81.30;;;;;;4876614;29;20049;-90
2023/08/23 09:53:00;;;;;;;30.67;19.43;;;22.40;80.90;;;;;;4852977;29;20069;-90
2023/08/23 09:55:29;;;;;;;33.13;20.98;;;22.50;79.70;;;;;;4868421;29;20152;-90
2023/08/23 09:57:57;;;;;;;33.88;21.13;;;22.40;80.30;;;;;;4883443;29;20533;-90
2023/08/23 10:00:25;;;;;;;36.17;21.42;;;22.40;80.30;;;;;;4868269;29;20056;-90
2023/08/23 10:02:53;;;;;;;37.80;21.45;;;22.30;81.40;;;;;;4867797;29;20140;-91
2023/08/23 10:05:21;;;;;;;35.43;20.27;;;22.30;80.70;;;;;;4868058;29;20053;-90
2023/08/23 10:07:54;;;;;;;33.70;20.42;;;22.40;80.80;;;;;;4883904;29;20387;-90
2023/08/23 10:10:21;;;;;;;35.53;21.20;;;22.50;81.00;;;;;;4867868;29;20053;-90
2023/08/23 10:12:53;;;;;;;35.45;19.70;;;22.60;80.20;;;;;;4852785;29;20419;-91
2023/08/23 10:15:28;;;;;;;38.83;20.35;;;22.80;79.40;;;;;;4867672;29;20515;-90
2023/08/23 10:17:58;;;;;;;32.13;19.57;;;22.80;79.40;;;;;;4867620;29;20049;-91
2023/08/23 10:20:25;;;;;;;37.22;22.88;;;23.00;78.80;;;;;;4867112;29;20053;-91
2023/08/23 10:22:56;;;;;;;40.20;25.17;;;23.00;79.40;;;;;;4882912;29;20068;-91
2023/08/23 10:25:23;;;;;;;39.75;22.08;;;23.10;79.70;;;;;;4867263;29;20136;-91
2023/08/23 10:27:55;;;;;;;31.00;19.63;;;23.10;79.00;;;;;;4867173;29;20045;-91
2023/08/23 10:30:25;;;;;;;36.37;21.17;;;23.20;78.80;;;;;;4867235;29;20053;-91
2023/08/23 10:33:11;;;;;;;38.63;22.40;;;23.30;78.70;;;;;;4867104;29;20056;-91
2023/08/23 10:35:39;;;;;;;42.42;23.40;;;23.40;78.20;;;;;;4868158;29;20455;-91
2023/08/23 10:38:08;;;;;;;39.00;23.73;;;23.40;77.40;;;;;;4867027;29;20052;-91
2023/08/23 10:40:38;;;;;;;37.00;21.25;;;23.30;77.50;;;;;;4866878;29;20053;-91
2023/08/23 10:43:12;;;;;;;37.87;22.43;;;23.40;77.30;;;;;;4866736;29;20053;-92
2023/08/23 10:45:49;;;;;;;40.03;23.73;;;23.30;77.40;;;;;;4851653;29;20463;-91
2023/08/23 10:48:20;;;;;;;38.15;21.60;;;23.20;78.30;;;;;;4866898;29;20053;-91
2023/08/23 10:50:49;;;;;;;39.63;23.15;;;23.20;77.60;;;;;;4866691;29;20415;-91
2023/08/23 10:53:17;;;;;;;35.78;21.30;;;23.20;78.50;;;;;;4851655;29;20064;-91
2023/08/23 10:55:44;;;;;;;33.70;21.13;;;23.10;78.00;;;;;;4865823;29;20059;-91
2023/08/23 10:58:16;;;;;;;34.72;21.05;;;23.10;78.10;;;;;;4866563;29;20049;-91
2023/08/23 11:00:45;;;;;;;38.80;20.08;;;23.20;78.10;;;;;;4866915;29;20575;-91
2023/08/23 11:03:12;;;;;;;35.08;19.20;;;23.30;77.60;;;;;;4866764;29;20052;-91
2023/08/23 11:05:39;;;;;;;35.60;20.38;;;23.40;76.70;;;;;;4882222;29;20471;-91
2023/08/23 11:08:07;;;;;;;34.70;19.77;;;23.40;76.50;;;;;;4866647;29;20072;-91
2023/08/23 11:10:36;;;;;;;34.50;20.10;;;23.40;76.00;;;;;;4879063;29;20048;-91
2023/08/23 11:13:03;;;;;;;37.45;20.70;;;23.40;75.90;;;;;;4869674;29;20048;-91
2023/08/23 11:15:31;;;;;;;34.78;20.52;;;23.30;75.90;;;;;;4885261;29;20179;-91
2023/08/23 11:17:58;;;;;;;33.15;20.00;;;23.40;76.80;;;;;;4869269;29;20491;-91
2023/08/23 11:20:25;;;;;;;37.20;20.23;;;23.50;76.60;;;;;;4884900;29;20055;-91
2023/08/23 11:22:52;;;;;;;32.33;18.80;;;23.60;75.50;;;;;;4884758;29;20087;-91
2023/08/23 11:25:20;;;;;;;33.90;20.65;;;23.60;74.80;;;;;;4884697;29;20049;-91
2023/08/23 11:27:47;;;;;;;31.85;19.27;;;23.60;75.30;;;;;;4869288;29;20112;-91
2023/08/23 11:30:14;;;;;;;32.00;20.23;;;23.70;75.00;;;;;;4884460;29;20147;-92
2023/08/23 11:32:43;;;;;;;35.03;19.50;;;23.80;75.60;;;;;;4884806;29;20056;-91
2023/08/23 11:35:10;;;;;;;36.75;22.33;;;23.90;74.70;;;;;;4884454;29;20064;-91
2023/08/23 11:37:38;;;;;;;34.80;20.98;;;23.90;74.60;;;;;;4900320;29;20053;-91
2023/08/23 11:40:10;;;;;;;33.55;21.05;;;24.00;74.40;;;;;;4884558;29;20053;-90
2023/08/23 11:42:39;;;;;;;34.00;20.90;;;24.20;73.90;;;;;;4884797;29;20556;-91
2023/08/23 11:45:07;;;;;;;31.03;20.83;;;24.30;72.90;;;;;;4884472;29;20097;-91
2023/08/23 11:47:36;;;;;;;33.08;20.67;;;24.50;73.10;;;;;;4884612;29;20498;-91
2023/08/23 11:50:09;;;;;;;33.92;21.92;;;24.50;71.60;;;;;;4884649;29;20044;-91
2023/08/23 11:52:36;;;;;;;32.13;19.63;;;24.40;72.90;;;;;;4884463;29;20060;-91
2023/08/23 11:55:04;;;;;;;31.90;21.30;;;24.40;72.10;;;;;;4884338;29;20048;-91
2023/08/23 11:57:33;;;;;;;35.33;22.10;;;24.40;72.10;;;;;;4884343;29;20450;-91
2023/08/23 12:00:00;;;;;;;34.80;22.00;;;24.40;72.30;;;;;;4868734;29;20052;-90
2023/08/23 12:02:32;;;;;;;33.88;21.67;;;24.30;71.90;;;;;;4884959;29;20493;-91
2023/08/23 12:04:59;;;;;;;37.97;22.15;;;24.30;71.70;;;;;;4883931;29;20059;-90
2023/08/23 12:07:26;;;;;;;34.85;22.88;;;24.30;71.70;;;;;;4868463;29;20526;-91
2023/08/23 12:09:54;;;;;;;34.37;21.97;;;24.20;71.80;;;;;;4878040;29;20061;-91
2023/08/23 12:12:22;;;;;;;37.15;22.98;;;24.20;71.80;;;;;;4849839;29;20455;-91
2023/08/23 12:14:49;;;;;;;37.42;23.58;;;24.10;72.20;;;;;;4880729;29;20056;-91
2023/08/23 12:17:16;;;;;;;36.40;22.98;;;24.00;72.30;;;;;;4850414;29;20526;-91
2023/08/23 12:19:43;;;;;;;35.55;24.25;;;24.10;72.90;;;;;;4883291;29;20056;-91
2023/08/23 12:22:12;;;;;;;33.60;22.03;;;24.10;73.20;;;;;;4868481;29;20167;-91
2023/08/23 12:24:40;;;;;;;33.30;22.23;;;24.20;74.00;;;;;;4883606;29;20053;-91
2023/08/23 12:27:07;;;;;;;33.72;21.40;;;24.30;72.80;;;;;;4883776;29;20100;-91
2023/08/23 12:29:34;;;;;;;32.70;20.30;;;24.60;72.70;;;;;;4883277;29;20099;-91
2023/08/23 12:32:02;;;;;;;33.13;21.25;;;24.90;69.30;;;;;;4877438;29;20100;-91
2023/08/23 12:34:29;;;;;;;31.23;20.43;;;25.00;69.30;;;;;;4864448;29;20064;-92